sensor_id;sensor_type;location;lat;lon;timestamp;P1;durP1;ratioP1;P2;durP2;ratioP2
23302;SDS011;11820;48.738;9.092;2023-05-07T00:00:34;3.43;;;1.70;;
23302;SDS011;11820;48.738;9.092;2023-05-07T00:03:00;2.90;;;2.10;;
23302;SDS011;11820;48.738;9.092;2023-05-07T00:05:26;2.43;;;2.20;;
23302;SDS011;11820;48.738;9.092;2023-05-07T00:07:51;3.20;;;2.07;;
23302;SDS011;11820;48.738;9.092;2023-05-07T00:10:18;4.03;;;1.80;;
23302;SDS011;11820;48.738;9.092;2023-05-07T00:12:44;2.13;;;1.60;;
23302;SDS011;11820;48.738;9.092;2023-05-07T00:15:09;3.70;;;1.97;;
23302;SDS011;11820;48.738;9.092;2023-05-07T00:17:35;2.37;;;2.17;;
23302;SDS011;11820;48.738;9.092;2023-05-07T00:20:01;3.03;;;2.23;;
23302;SDS011;11820;48.738;9.092;2023-05-07T00:22:26;2.13;;;1.90;;
23302;SDS011;11820;48.738;9.092;2023-05-07T00:24:51;4.33;;;2.40;;
23302;SDS011;11820;48.738;9.092;2023-05-07T00:27:17;2.83;;;2.20;;
23302;SDS011;11820;48.738;9.092;2023-05-07T00:29:42;2.10;;;1.90;;
23302;SDS011;11820;48.738;9.092;2023-05-07T00:32:07;2.13;;;2.03;;
23302;SDS011;11820;48.738;9.092;2023-05-07T00:34:33;1.93;;;1.80;;
23302;SDS011;11820;48.738;9.092;2023-05-07T00:36:58;6.73;;;1.90;;
23302;SDS011;11820;48.738;9.092;2023-05-07T00:39:23;4.33;;;2.03;;
23302;SDS011;11820;48.738;9.092;2023-05-07T00:41:49;2.50;;;1.73;;
23302;SDS011;11820;48.738;9.092;2023-05-07T00:44:14;3.13;;;2.20;;
23302;SDS011;11820;48.738;9.092;2023-05-07T00:46:40;3.27;;;2.30;;
23302;SDS011;11820;48.738;9.092;2023-05-07T00:49:05;2.87;;;2.00;;
23302;SDS011;11820;48.738;9.092;2023-05-07T00:51:31;3.07;;;2.23;;
23302;SDS011;11820;48.738;9.092;2023-05-07T00:53:58;3.60;;;1.93;;
23302;SDS011;11820;48.738;9.092;2023-05-07T00:56:24;2.83;;;2.30;;
23302;SDS011;11820;48.738;9.092;2023-05-07T00:58:50;3.33;;;2.13;;
23302;SDS011;11820;48.738;9.092;2023-05-07T01:01:15;2.37;;;2.17;;
23302;SDS011;11820;48.738;9.092;2023-05-07T01:03:41;2.33;;;2.13;;
23302;SDS011;11820;48.738;9.092;2023-05-07T01:06:07;4.80;;;2.30;;
23302;SDS011;11820;48.738;9.092;2023-05-07T01:08:34;2.57;;;2.30;;
23302;SDS011;11820;48.738;9.092;2023-05-07T01:11:00;2.77;;;2.10;;
23302;SDS011;11820;48.738;9.092;2023-05-07T01:13:25;4.43;;;2.33;;
23302;SDS011;11820;48.738;9.092;2023-05-07T01:15:52;4.23;;;2.27;;
23302;SDS011;11820;48.738;9.092;2023-05-07T01:18:17;3.53;;;2.03;;
23302;SDS011;11820;48.738;9.092;2023-05-07T01:20:42;3.20;;;2.13;;
23302;SDS011;11820;48.738;9.092;2023-05-07T01:23:08;4.50;;;1.97;;
23302;SDS011;11820;48.738;9.092;2023-05-07T01:25:36;2.63;;;2.00;;
23302;SDS011;11820;48.738;9.092;2023-05-07T01:28:01;2.43;;;1.93;;
23302;SDS011;11820;48.738;9.092;2023-05-07T01:30:27;4.60;;;2.17;;
23302;SDS011;11820;48.738;9.092;2023-05-07T01:33:14;2.53;;;1.73;;
23302;SDS011;11820;48.738;9.092;2023-05-07T01:35:41;2.87;;;2.67;;
23302;SDS011;11820;48.738;9.092;2023-05-07T01:38:10;2.70;;;2.23;;
23302;SDS011;11820;48.738;9.092;2023-05-07T01:40:37;3.67;;;1.90;;
23302;SDS011;11820;48.738;9.092;2023-05-07T01:43:02;2.77;;;1.80;;
23302;SDS011;11820;48.738;9.092;2023-05-07T01:45:28;2.40;;;2.20;;
23302;SDS011;11820;48.738;9.092;2023-05-07T01:47:55;2.53;;;2.33;;
23302;SDS011;11820;48.738;9.092;2023-05-07T01:50:22;3.00;;;2.30;;
23302;SDS011;11820;48.738;9.092;2023-05-07T01:52:49;3.23;;;2.40;;
23302;SDS011;11820;48.738;9.092;2023-05-07T01:55:15;2.43;;;2.10;;
23302;SDS011;11820;48.738;9.092;2023-05-07T01:57:41;2.97;;;2.50;;
23302;SDS011;11820;48.738;9.092;2023-05-07T02:00:06;4.13;;;2.23;;
23302;SDS011;11820;48.738;9.092;2023-05-07T02:02:33;4.03;;;2.90;;
23302;SDS011;11820;48.738;9.092;2023-05-07T02:04:59;3.37;;;2.40;;
23302;SDS011;11820;48.738;9.092;2023-05-07T02:07:25;2.33;;;2.10;;
23302;SDS011;11820;48.738;9.092;2023-05-07T02:09:50;3.67;;;2.07;;
23302;SDS011;11820;48.738;9.092;2023-05-07T02:12:15;2.57;;;2.13;;
23302;SDS011;11820;48.738;9.092;2023-05-07T02:14:41;3.00;;;2.00;;
23302;SDS011;11820;48.738;9.092;2023-05-07T02:17:07;3.70;;;2.30;;
23302;SDS011;11820;48.738;9.092;2023-05-07T02:19:32;2.40;;;2.20;;
23302;SDS011;11820;48.738;9.092;2023-05-07T02:21:58;4.03;;;2.30;;
23302;SDS011;11820;48.738;9.092;2023-05-07T02:24:23;2.30;;;2.10;;
23302;SDS011;11820;48.738;9.092;2023-05-07T02:26:48;3.13;;;2.10;;
23302;SDS011;11820;48.738;9.092;2023-05-07T02:29:13;2.17;;;1.97;;
23302;SDS011;11820;48.738;9.092;2023-05-07T02:31:39;2.23;;;1.87;;
23302;SDS011;11820;48.738;9.092;2023-05-07T02:34:04;2.53;;;2.33;;
23302;SDS011;11820;48.738;9.092;2023-05-07T02:36:29;1.90;;;1.70;;
23302;SDS011;11820;48.738;9.092;2023-05-07T02:38:55;2.87;;;1.90;;
23302;SDS011;11820;48.738;9.092;2023-05-07T02:41:20;2.97;;;1.80;;
23302;SDS011;11820;48.738;9.092;2023-05-07T02:43:45;4.13;;;2.13;;
23302;SDS011;11820;48.738;9.092;2023-05-07T02:46:11;4.23;;;2.23;;
23302;SDS011;11820;48.738;9.092;2023-05-07T02:48:36;3.93;;;2.07;;
23302;SDS011;11820;48.738;9.092;2023-05-07T02:51:02;5.10;;;2.60;;
23302;SDS011;11820;48.738;9.092;2023-05-07T02:53:28;2.67;;;2.00;;
23302;SDS011;11820;48.738;9.092;2023-05-07T02:55:55;3.07;;;2.20;;
23302;SDS011;11820;48.738;9.092;2023-05-07T02:58:21;3.80;;;2.13;;
23302;SDS011;11820;48.738;9.092;2023-05-07T03:00:47;2.57;;;2.27;;
23302;SDS011;11820;48.738;9.092;2023-05-07T03:03:12;2.87;;;2.50;;
23302;SDS011;11820;48.738;9.092;2023-05-07T03:05:38;2.30;;;2.10;;
23302;SDS011;11820;48.738;9.092;2023-05-07T03:08:04;2.80;;;2.03;;
23302;SDS011;11820;48.738;9.092;2023-05-07T03:10:29;4.13;;;2.10;;
23302;SDS011;11820;48.738;9.092;2023-05-07T03:12:55;3.60;;;2.30;;
23302;SDS011;11820;48.738;9.092;2023-05-07T03:15:20;3.37;;;2.23;;
23302;SDS011;11820;48.738;9.092;2023-05-07T03:17:46;3.90;;;2.13;;
23302;SDS011;11820;48.738;9.092;2023-05-07T03:20:12;2.97;;;2.00;;
23302;SDS011;11820;48.738;9.092;2023-05-07T03:22:38;2.17;;;1.97;;
23302;SDS011;11820;48.738;9.092;2023-05-07T03:25:03;4.80;;;2.30;;
23302;SDS011;11820;48.738;9.092;2023-05-07T03:27:29;2.80;;;2.20;;
23302;SDS011;11820;48.738;9.092;2023-05-07T03:29:54;2.50;;;2.30;;
23302;SDS011;11820;48.738;9.092;2023-05-07T03:32:20;2.90;;;2.23;;
23302;SDS011;11820;48.738;9.092;2023-05-07T03:34:45;3.03;;;2.67;;
23302;SDS011;11820;48.738;9.092;2023-05-07T03:37:10;3.33;;;2.20;;
23302;SDS011;11820;48.738;9.092;2023-05-07T03:39:36;2.90;;;2.30;;
23302;SDS011;11820;48.738;9.092;2023-05-07T03:42:01;5.37;;;2.17;;
23302;SDS011;11820;48.738;9.092;2023-05-07T03:44:27;3.17;;;2.20;;
23302;SDS011;11820;48.738;9.092;2023-05-07T03:46:52;2.57;;;2.00;;
23302;SDS011;11820;48.738;9.092;2023-05-07T03:49:18;3.20;;;2.20;;
23302;SDS011;11820;48.738;9.092;2023-05-07T03:51:43;1.93;;;1.83;;
23302;SDS011;11820;48.738;9.092;2023-05-07T03:54:08;2.93;;;1.77;;
23302;SDS011;11820;48.738;9.092;2023-05-07T03:56:34;2.53;;;1.90;;
23302;SDS011;11820;48.738;9.092;2023-05-07T03:59:00;4.07;;;2.00;;
23302;SDS011;11820;48.738;9.092;2023-05-07T04:01:25;2.30;;;2.10;;
23302;SDS011;11820;48.738;9.092;2023-05-07T04:03:51;7.37;;;2.30;;
23302;SDS011;11820;48.738;9.092;2023-05-07T04:06:16;2.47;;;2.27;;
23302;SDS011;11820;48.738;9.092;2023-05-07T04:08:42;2.83;;;2.07;;
23302;SDS011;11820;48.738;9.092;2023-05-07T04:11:07;5.33;;;2.13;;
23302;SDS011;11820;48.738;9.092;2023-05-07T04:13:33;2.47;;;1.93;;
23302;SDS011;11820;48.738;9.092;2023-05-07T04:15:58;2.30;;;2.10;;
23302;SDS011;11820;48.738;9.092;2023-05-07T04:18:23;3.27;;;2.10;;
23302;SDS011;11820;48.738;9.092;2023-05-07T04:20:49;3.90;;;2.03;;
23302;SDS011;11820;48.738;9.092;2023-05-07T04:23:15;4.23;;;2.10;;
23302;SDS011;11820;48.738;9.092;2023-05-07T04:25:40;3.67;;;1.90;;
23302;SDS011;11820;48.738;9.092;2023-05-07T04:28:06;2.50;;;2.30;;
23302;SDS011;11820;48.738;9.092;2023-05-07T04:30:32;3.60;;;2.20;;
23302;SDS011;11820;48.738;9.092;2023-05-07T04:32:57;2.30;;;2.10;;
23302;SDS011;11820;48.738;9.092;2023-05-07T04:35:22;2.17;;;2.00;;
23302;SDS011;11820;48.738;9.092;2023-05-07T04:37:47;2.20;;;2.00;;
23302;SDS011;11820;48.738;9.092;2023-05-07T04:40:13;3.77;;;2.17;;
23302;SDS011;11820;48.738;9.092;2023-05-07T04:42:38;2.50;;;1.80;;
23302;SDS011;11820;48.738;9.092;2023-05-07T04:45:04;2.23;;;1.80;;
23302;SDS011;11820;48.738;9.092;2023-05-07T04:47:30;3.37;;;2.30;;
23302;SDS011;11820;48.738;9.092;2023-05-07T04:49:55;2.60;;;2.13;;
23302;SDS011;11820;48.738;9.092;2023-05-07T04:52:21;3.07;;;2.00;;
23302;SDS011;11820;48.738;9.092;2023-05-07T04:54:46;2.00;;;1.90;;
23302;SDS011;11820;48.738;9.092;2023-05-07T04:57:11;4.00;;;2.60;;
23302;SDS011;11820;48.738;9.092;2023-05-07T04:59:37;2.37;;;2.17;;
23302;SDS011;11820;48.738;9.092;2023-05-07T05:02:02;2.40;;;2.20;;
23302;SDS011;11820;48.738;9.092;2023-05-07T05:04:29;3.23;;;1.93;;
23302;SDS011;11820;48.738;9.092;2023-05-07T05:06:54;3.07;;;2.00;;
23302;SDS011;11820;48.738;9.092;2023-05-07T05:09:19;6.40;;;2.20;;
23302;SDS011;11820;48.738;9.092;2023-05-07T05:11:45;2.20;;;2.00;;
23302;SDS011;11820;48.738;9.092;2023-05-07T05:14:10;2.70;;;2.00;;
23302;SDS011;11820;48.738;9.092;2023-05-07T05:16:35;3.00;;;2.70;;
23302;SDS011;11820;48.738;9.092;2023-05-07T05:19:01;2.27;;;1.60;;
23302;SDS011;11820;48.738;9.092;2023-05-07T05:21:27;2.87;;;2.00;;
23302;SDS011;11820;48.738;9.092;2023-05-07T05:23:52;2.33;;;2.13;;
23302;SDS011;11820;48.738;9.092;2023-05-07T05:26:18;2.20;;;1.97;;
23302;SDS011;11820;48.738;9.092;2023-05-07T05:28:43;7.27;;;3.83;;
23302;SDS011;11820;48.738;9.092;2023-05-07T05:31:09;2.73;;;2.00;;
23302;SDS011;11820;48.738;9.092;2023-05-07T05:33:35;3.40;;;2.10;;
23302;SDS011;11820;48.738;9.092;2023-05-07T05:36:00;2.43;;;1.90;;
23302;SDS011;11820;48.738;9.092;2023-05-07T05:38:26;3.57;;;2.13;;
23302;SDS011;11820;48.738;9.092;2023-05-07T05:40:51;2.27;;;2.17;;
23302;SDS011;11820;48.738;9.092;2023-05-07T05:43:16;3.10;;;2.80;;
23302;SDS011;11820;48.738;9.092;2023-05-07T05:45:42;3.77;;;2.63;;
23302;SDS011;11820;48.738;9.092;2023-05-07T05:48:07;4.27;;;2.70;;
23302;SDS011;11820;48.738;9.092;2023-05-07T05:50:33;3.07;;;2.77;;
23302;SDS011;11820;48.738;9.092;2023-05-07T05:53:00;2.87;;;2.50;;
23302;SDS011;11820;48.738;9.092;2023-05-07T05:55:26;3.40;;;2.77;;
23302;SDS011;11820;48.738;9.092;2023-05-07T05:57:51;2.63;;;2.33;;
23302;SDS011;11820;48.738;9.092;2023-05-07T06:00:17;3.50;;;3.20;;
23302;SDS011;11820;48.738;9.092;2023-05-07T06:02:42;4.37;;;2.80;;
23302;SDS011;11820;48.738;9.092;2023-05-07T06:05:08;2.80;;;2.50;;
23302;SDS011;11820;48.738;9.092;2023-05-07T06:07:34;3.00;;;2.70;;
23302;SDS011;11820;48.738;9.092;2023-05-07T06:09:59;4.73;;;2.67;;
23302;SDS011;11820;48.738;9.092;2023-05-07T06:12:25;2.67;;;2.47;;
23302;SDS011;11820;48.738;9.092;2023-05-07T06:14:50;4.90;;;2.67;;
23302;SDS011;11820;48.738;9.092;2023-05-07T06:17:16;3.43;;;2.90;;
23302;SDS011;11820;48.738;9.092;2023-05-07T06:19:41;3.40;;;2.80;;
23302;SDS011;11820;48.738;9.092;2023-05-07T06:22:06;4.00;;;3.03;;
23302;SDS011;11820;48.738;9.092;2023-05-07T06:24:32;2.90;;;2.23;;
23302;SDS011;11820;48.738;9.092;2023-05-07T06:26:57;4.10;;;3.13;;
23302;SDS011;11820;48.738;9.092;2023-05-07T06:29:23;2.93;;;2.73;;
23302;SDS011;11820;48.738;9.092;2023-05-07T06:31:50;4.80;;;2.87;;
23302;SDS011;11820;48.738;9.092;2023-05-07T06:34:17;4.63;;;3.10;;
23302;SDS011;11820;48.738;9.092;2023-05-07T06:36:42;2.87;;;2.60;;
23302;SDS011;11820;48.738;9.092;2023-05-07T06:39:08;3.93;;;2.70;;
23302;SDS011;11820;48.738;9.092;2023-05-07T06:41:33;4.80;;;3.07;;
23302;SDS011;11820;48.738;9.092;2023-05-07T06:44:00;3.87;;;3.30;;
23302;SDS011;11820;48.738;9.092;2023-05-07T06:46:26;4.73;;;3.07;;
23302;SDS011;11820;48.738;9.092;2023-05-07T06:48:52;3.57;;;3.10;;
23302;SDS011;11820;48.738;9.092;2023-05-07T06:51:17;3.60;;;3.13;;
23302;SDS011;11820;48.738;9.092;2023-05-07T06:53:43;3.47;;;3.17;;
23302;SDS011;11820;48.738;9.092;2023-05-07T06:56:08;3.43;;;3.00;;
23302;SDS011;11820;48.738;9.092;2023-05-07T06:58:33;3.87;;;3.27;;
23302;SDS011;11820;48.738;9.092;2023-05-07T07:00:59;3.43;;;3.13;;
23302;SDS011;11820;48.738;9.092;2023-05-07T07:03:24;3.17;;;2.87;;
23302;SDS011;11820;48.738;9.092;2023-05-07T07:05:53;3.90;;;3.43;;
23302;SDS011;11820;48.738;9.092;2023-05-07T07:08:20;4.87;;;3.20;;
23302;SDS011;11820;48.738;9.092;2023-05-07T07:10:46;3.57;;;3.27;;
23302;SDS011;11820;48.738;9.092;2023-05-07T07:13:12;3.63;;;2.97;;
23302;SDS011;11820;48.738;9.092;2023-05-07T07:15:37;6.60;;;3.60;;
23302;SDS011;11820;48.738;9.092;2023-05-07T07:18:03;3.20;;;2.90;;
23302;SDS011;11820;48.738;9.092;2023-05-07T07:20:29;5.03;;;3.50;;
23302;SDS011;11820;48.738;9.092;2023-05-07T07:22:54;10.00;;;3.90;;
23302;SDS011;11820;48.738;9.092;2023-05-07T07:25:19;7.47;;;3.80;;
23302;SDS011;11820;48.738;9.092;2023-05-07T07:27:45;5.87;;;3.70;;
23302;SDS011;11820;48.738;9.092;2023-05-07T07:30:10;6.13;;;3.23;;
23302;SDS011;11820;48.738;9.092;2023-05-07T07:32:35;3.70;;;3.00;;
23302;SDS011;11820;48.738;9.092;2023-05-07T07:35:01;5.00;;;3.13;;
23302;SDS011;11820;48.738;9.092;2023-05-07T07:37:27;4.70;;;3.27;;
23302;SDS011;11820;48.738;9.092;2023-05-07T07:39:52;4.27;;;2.87;;
23302;SDS011;11820;48.738;9.092;2023-05-07T07:42:18;3.23;;;2.87;;
23302;SDS011;11820;48.738;9.092;2023-05-07T07:44:43;3.73;;;3.43;;
23302;SDS011;11820;48.738;9.092;2023-05-07T07:47:09;4.50;;;3.40;;
23302;SDS011;11820;48.738;9.092;2023-05-07T07:49:34;4.10;;;3.20;;
23302;SDS011;11820;48.738;9.092;2023-05-07T07:52:00;3.80;;;3.30;;
23302;SDS011;11820;48.738;9.092;2023-05-07T07:54:25;6.47;;;3.73;;
23302;SDS011;11820;48.738;9.092;2023-05-07T07:56:51;2.90;;;2.70;;
23302;SDS011;11820;48.738;9.092;2023-05-07T07:59:16;4.53;;;3.30;;
23302;SDS011;11820;48.738;9.092;2023-05-07T08:01:44;3.53;;;2.40;;
23302;SDS011;11820;48.738;9.092;2023-05-07T08:04:10;4.23;;;2.70;;
23302;SDS011;11820;48.738;9.092;2023-05-07T08:06:35;3.03;;;2.03;;
23302;SDS011;11820;48.738;9.092;2023-05-07T08:09:01;3.20;;;2.70;;
23302;SDS011;11820;48.738;9.092;2023-05-07T08:11:27;2.27;;;2.03;;
23302;SDS011;11820;48.738;9.092;2023-05-07T08:13:53;3.60;;;2.30;;
23302;SDS011;11820;48.738;9.092;2023-05-07T08:16:19;3.50;;;2.40;;
23302;SDS011;11820;48.738;9.092;2023-05-07T08:18:44;3.20;;;2.50;;
23302;SDS011;11820;48.738;9.092;2023-05-07T08:21:10;3.67;;;2.80;;
23302;SDS011;11820;48.738;9.092;2023-05-07T08:23:35;2.53;;;2.33;;
23302;SDS011;11820;48.738;9.092;2023-05-07T08:26:01;2.70;;;2.47;;
23302;SDS011;11820;48.738;9.092;2023-05-07T08:28:26;7.80;;;2.73;;
23302;SDS011;11820;48.738;9.092;2023-05-07T08:30:51;2.53;;;2.33;;
23302;SDS011;11820;48.738;9.092;2023-05-07T08:33:16;4.83;;;2.40;;
23302;SDS011;11820;48.738;9.092;2023-05-07T08:35:42;2.30;;;2.10;;
23302;SDS011;11820;48.738;9.092;2023-05-07T08:38:07;4.27;;;2.30;;
23302;SDS011;11820;48.738;9.092;2023-05-07T08:40:36;2.53;;;2.33;;
23302;SDS011;11820;48.738;9.092;2023-05-07T08:43:05;4.23;;;2.30;;
23302;SDS011;11820;48.738;9.092;2023-05-07T08:45:30;4.47;;;2.17;;
23302;SDS011;11820;48.738;9.092;2023-05-07T08:47:58;2.87;;;2.03;;
23302;SDS011;11820;48.738;9.092;2023-05-07T08:50:26;5.90;;;2.43;;
23302;SDS011;11820;48.738;9.092;2023-05-07T08:52:52;3.20;;;2.63;;
23302;SDS011;11820;48.738;9.092;2023-05-07T08:55:17;8.10;;;3.73;;
23302;SDS011;11820;48.738;9.092;2023-05-07T08:57:43;2.80;;;2.43;;
23302;SDS011;11820;48.738;9.092;2023-05-07T09:00:09;4.67;;;3.00;;
23302;SDS011;11820;48.738;9.092;2023-05-07T09:02:35;3.80;;;2.70;;
23302;SDS011;11820;48.738;9.092;2023-05-07T09:05:01;3.77;;;2.97;;
23302;SDS011;11820;48.738;9.092;2023-05-07T09:07:27;7.80;;;2.80;;
23302;SDS011;11820;48.738;9.092;2023-05-07T09:09:53;3.70;;;2.10;;
23302;SDS011;11820;48.738;9.092;2023-05-07T09:12:20;2.40;;;2.20;;
23302;SDS011;11820;48.738;9.092;2023-05-07T09:14:46;3.33;;;2.67;;
23302;SDS011;11820;48.738;9.092;2023-05-07T09:17:12;3.37;;;2.20;;
23302;SDS011;11820;48.738;9.092;2023-05-07T09:19:37;3.30;;;2.60;;
23302;SDS011;11820;48.738;9.092;2023-05-07T09:22:03;2.37;;;2.17;;
23302;SDS011;11820;48.738;9.092;2023-05-07T09:24:31;2.37;;;2.17;;
23302;SDS011;11820;48.738;9.092;2023-05-07T09:27:00;7.23;;;2.57;;
23302;SDS011;11820;48.738;9.092;2023-05-07T09:29:27;2.37;;;2.17;;
23302;SDS011;11820;48.738;9.092;2023-05-07T09:32:00;3.33;;;2.47;;
23302;SDS011;11820;48.738;9.092;2023-05-07T09:34:30;5.30;;;2.57;;
23302;SDS011;11820;48.738;9.092;2023-05-07T09:36:55;2.80;;;2.60;;
23302;SDS011;11820;48.738;9.092;2023-05-07T09:39:21;2.63;;;2.33;;
23302;SDS011;11820;48.738;9.092;2023-05-07T09:41:48;4.23;;;2.77;;
23302;SDS011;11820;48.738;9.092;2023-05-07T09:44:14;2.80;;;2.60;;
23302;SDS011;11820;48.738;9.092;2023-05-07T09:46:41;2.70;;;2.50;;
23302;SDS011;11820;48.738;9.092;2023-05-07T09:49:11;2.70;;;2.50;;
23302;SDS011;11820;48.738;9.092;2023-05-07T09:51:45;2.40;;;2.00;;
23302;SDS011;11820;48.738;9.092;2023-05-07T09:54:14;3.63;;;2.83;;
23302;SDS011;11820;48.738;9.092;2023-05-07T09:56:40;3.33;;;2.27;;
23302;SDS011;11820;48.738;9.092;2023-05-07T09:59:10;3.63;;;2.30;;
23302;SDS011;11820;48.738;9.092;2023-05-07T10:01:37;3.60;;;2.47;;
23302;SDS011;11820;48.738;9.092;2023-05-07T10:04:05;2.67;;;2.10;;
23302;SDS011;11820;48.738;9.092;2023-05-07T10:06:33;3.00;;;2.20;;
23302;SDS011;11820;48.738;9.092;2023-05-07T10:08:59;11.73;;;2.47;;
23302;SDS011;11820;48.738;9.092;2023-05-07T10:11:25;3.23;;;2.03;;
23302;SDS011;11820;48.738;9.092;2023-05-07T10:13:52;2.33;;;2.13;;
23302;SDS011;11820;48.738;9.092;2023-05-07T10:16:17;4.10;;;2.60;;
23302;SDS011;11820;48.738;9.092;2023-05-07T10:18:43;2.43;;;2.10;;
23302;SDS011;11820;48.738;9.092;2023-05-07T10:21:20;2.83;;;2.60;;
23302;SDS011;11820;48.738;9.092;2023-05-07T10:23:51;2.33;;;2.13;;
23302;SDS011;11820;48.738;9.092;2023-05-07T10:26:22;2.27;;;1.93;;
23302;SDS011;11820;48.738;9.092;2023-05-07T10:28:52;2.27;;;1.80;;
23302;SDS011;11820;48.738;9.092;2023-05-07T10:33:53;2.40;;;2.00;;
23302;SDS011;11820;48.738;9.092;2023-05-07T10:36:20;1.93;;;1.73;;
23302;SDS011;11820;48.738;9.092;2023-05-07T10:38:47;2.63;;;2.10;;
23302;SDS011;11820;48.738;9.092;2023-05-07T10:41:12;2.17;;;1.70;;
23302;SDS011;11820;48.738;9.092;2023-05-07T10:43:40;3.43;;;2.10;;
23302;SDS011;11820;48.738;9.092;2023-05-07T10:46:19;2.77;;;1.73;;
23302;SDS011;11820;48.738;9.092;2023-05-07T10:51:28;2.67;;;1.80;;
23302;SDS011;11820;48.738;9.092;2023-05-07T10:54:40;2.17;;;1.70;;
23302;SDS011;11820;48.738;9.092;2023-05-07T10:56:43;2.23;;;2.00;;
23302;SDS011;11820;48.738;9.092;2023-05-07T11:04:24;3.73;;;1.70;;
23302;SDS011;11820;48.738;9.092;2023-05-07T11:12:18;3.27;;;1.53;;
23302;SDS011;11820;48.738;9.092;2023-05-07T11:15:06;2.40;;;1.93;;
23302;SDS011;11820;48.738;9.092;2023-05-07T11:17:34;2.97;;;2.00;;
23302;SDS011;11820;48.738;9.092;2023-05-07T11:20:17;3.47;;;2.10;;
23302;SDS011;11820;48.738;9.092;2023-05-07T11:22:42;2.27;;;1.70;;
23302;SDS011;11820;48.738;9.092;2023-05-07T11:25:08;3.63;;;1.87;;
23302;SDS011;11820;48.738;9.092;2023-05-07T11:27:33;3.20;;;1.83;;
23302;SDS011;11820;48.738;9.092;2023-05-07T11:29:59;3.23;;;2.13;;
23302;SDS011;11820;48.738;9.092;2023-05-07T11:32:26;2.27;;;2.07;;
23302;SDS011;11820;48.738;9.092;2023-05-07T11:34:53;3.47;;;1.95;;
23302;SDS011;11820;48.738;9.092;2023-05-07T11:37:20;1.70;;;1.60;;
23302;SDS011;11820;48.738;9.092;2023-05-07T11:39:46;3.93;;;1.90;;
23302;SDS011;11820;48.738;9.092;2023-05-07T11:45:09;7.87;;;2.70;;
23302;SDS011;11820;48.738;9.092;2023-05-07T11:47:35;4.43;;;2.40;;
23302;SDS011;11820;48.738;9.092;2023-05-07T11:50:04;6.83;;;2.90;;
23302;SDS011;11820;48.738;9.092;2023-05-07T11:52:32;6.37;;;2.90;;
23302;SDS011;11820;48.738;9.092;2023-05-07T11:54:58;5.60;;;2.77;;
23302;SDS011;11820;48.738;9.092;2023-05-07T11:57:25;4.50;;;2.67;;
23302;SDS011;11820;48.738;9.092;2023-05-07T11:59:54;5.17;;;2.77;;
23302;SDS011;11820;48.738;9.092;2023-05-07T12:02:21;5.87;;;2.77;;
23302;SDS011;11820;48.738;9.092;2023-05-07T12:04:47;6.57;;;3.10;;
23302;SDS011;11820;48.738;9.092;2023-05-07T12:07:12;4.17;;;3.00;;
23302;SDS011;11820;48.738;9.092;2023-05-07T12:09:39;5.17;;;3.37;;
23302;SDS011;11820;48.738;9.092;2023-05-07T12:12:07;7.73;;;2.60;;
23302;SDS011;11820;48.738;9.092;2023-05-07T12:14:37;3.53;;;1.97;;
23302;SDS011;11820;48.738;9.092;2023-05-07T12:17:04;3.70;;;1.57;;
23302;SDS011;11820;48.738;9.092;2023-05-07T12:19:30;2.30;;;1.47;;
23302;SDS011;11820;48.738;9.092;2023-05-07T12:21:56;4.20;;;1.87;;
23302;SDS011;11820;48.738;9.092;2023-05-07T12:24:22;4.57;;;2.30;;
23302;SDS011;11820;48.738;9.092;2023-05-07T12:26:48;3.37;;;1.40;;
23302;SDS011;11820;48.738;9.092;2023-05-07T12:29:14;2.80;;;1.07;;
23302;SDS011;11820;48.738;9.092;2023-05-07T12:31:42;4.07;;;1.37;;
23302;SDS011;11820;48.738;9.092;2023-05-07T12:34:08;6.20;;;2.10;;
23302;SDS011;11820;48.738;9.092;2023-05-07T12:36:39;7.85;;;3.80;;
23302;SDS011;11820;48.738;9.092;2023-05-07T12:39:06;5.83;;;3.70;;
23302;SDS011;11820;48.738;9.092;2023-05-07T12:41:35;8.03;;;4.70;;
23302;SDS011;11820;48.738;9.092;2023-05-07T12:44:17;3.10;;;1.70;;
23302;SDS011;11820;48.738;9.092;2023-05-07T12:46:43;4.60;;;2.00;;
23302;SDS011;11820;48.738;9.092;2023-05-07T12:49:08;6.67;;;1.87;;
23302;SDS011;11820;48.738;9.092;2023-05-07T12:51:34;2.97;;;1.60;;
23302;SDS011;11820;48.738;9.092;2023-05-07T12:54:00;2.57;;;1.20;;
23302;SDS011;11820;48.738;9.092;2023-05-07T12:56:25;3.30;;;1.37;;
23302;SDS011;11820;48.738;9.092;2023-05-07T12:58:51;2.23;;;1.30;;
23302;SDS011;11820;48.738;9.092;2023-05-07T13:01:16;1.63;;;1.23;;
23302;SDS011;11820;48.738;9.092;2023-05-07T13:03:47;2.53;;;1.50;;
23302;SDS011;11820;48.738;9.092;2023-05-07T13:06:13;1.27;;;0.90;;
23302;SDS011;11820;48.738;9.092;2023-05-07T13:08:39;2.07;;;1.27;;
23302;SDS011;11820;48.738;9.092;2023-05-07T13:11:08;1.40;;;1.17;;
23302;SDS011;11820;48.738;9.092;2023-05-07T13:13:34;2.27;;;1.20;;
23302;SDS011;11820;48.738;9.092;2023-05-07T13:16:01;3.40;;;1.57;;
23302;SDS011;11820;48.738;9.092;2023-05-07T13:18:29;1.60;;;1.30;;
23302;SDS011;11820;48.738;9.092;2023-05-07T13:20:55;2.53;;;1.40;;
23302;SDS011;11820;48.738;9.092;2023-05-07T13:23:21;2.93;;;1.20;;
23302;SDS011;11820;48.738;9.092;2023-05-07T13:25:47;2.90;;;1.60;;
23302;SDS011;11820;48.738;9.092;2023-05-07T13:28:13;1.97;;;1.10;;
23302;SDS011;11820;48.738;9.092;2023-05-07T13:30:38;1.10;;;0.93;;
23302;SDS011;11820;48.738;9.092;2023-05-07T13:33:04;4.60;;;1.70;;
23302;SDS011;11820;48.738;9.092;2023-05-07T13:35:29;2.90;;;1.30;;
23302;SDS011;11820;48.738;9.092;2023-05-07T13:37:55;2.80;;;1.20;;
23302;SDS011;11820;48.738;9.092;2023-05-07T13:40:21;3.17;;;1.30;;
23302;SDS011;11820;48.738;9.092;2023-05-07T13:42:46;1.97;;;1.10;;
23302;SDS011;11820;48.738;9.092;2023-05-07T13:45:12;3.30;;;0.83;;
23302;SDS011;11820;48.738;9.092;2023-05-07T13:47:39;1.77;;;0.97;;
23302;SDS011;11820;48.738;9.092;2023-05-07T13:50:08;1.97;;;1.40;;
23302;SDS011;11820;48.738;9.092;2023-05-07T13:52:34;2.50;;;1.37;;
23302;SDS011;11820;48.738;9.092;2023-05-07T13:55:00;2.93;;;1.23;;
23302;SDS011;11820;48.738;9.092;2023-05-07T13:57:25;2.77;;;1.73;;
23302;SDS011;11820;48.738;9.092;2023-05-07T13:59:50;6.40;;;2.23;;
23302;SDS011;11820;48.738;9.092;2023-05-07T14:02:16;3.77;;;2.33;;
23302;SDS011;11820;48.738;9.092;2023-05-07T14:04:41;3.87;;;1.93;;
23302;SDS011;11820;48.738;9.092;2023-05-07T14:07:06;5.80;;;1.70;;
23302;SDS011;11820;48.738;9.092;2023-05-07T14:09:32;3.07;;;1.80;;
23302;SDS011;11820;48.738;9.092;2023-05-07T14:11:58;5.40;;;2.20;;
23302;SDS011;11820;48.738;9.092;2023-05-07T14:14:24;3.17;;;2.13;;
23302;SDS011;11820;48.738;9.092;2023-05-07T14:16:49;3.93;;;2.60;;
23302;SDS011;11820;48.738;9.092;2023-05-07T14:19:14;4.23;;;2.00;;
23302;SDS011;11820;48.738;9.092;2023-05-07T14:21:40;4.43;;;2.57;;
23302;SDS011;11820;48.738;9.092;2023-05-07T14:24:06;5.97;;;2.43;;
23302;SDS011;11820;48.738;9.092;2023-05-07T14:26:33;5.90;;;3.00;;
23302;SDS011;11820;48.738;9.092;2023-05-07T14:28:59;4.17;;;2.60;;
23302;SDS011;11820;48.738;9.092;2023-05-07T14:31:24;4.47;;;2.33;;
23302;SDS011;11820;48.738;9.092;2023-05-07T14:33:50;4.03;;;2.33;;
23302;SDS011;11820;48.738;9.092;2023-05-07T14:36:15;5.33;;;2.13;;
23302;SDS011;11820;48.738;9.092;2023-05-07T14:38:47;2.73;;;2.03;;
23302;SDS011;11820;48.738;9.092;2023-05-07T14:41:13;3.47;;;1.93;;
23302;SDS011;11820;48.738;9.092;2023-05-07T14:43:39;3.27;;;2.03;;
23302;SDS011;11820;48.738;9.092;2023-05-07T14:46:04;3.93;;;2.10;;
23302;SDS011;11820;48.738;9.092;2023-05-07T14:48:29;1.97;;;1.70;;
23302;SDS011;11820;48.738;9.092;2023-05-07T14:50:55;3.03;;;2.07;;
23302;SDS011;11820;48.738;9.092;2023-05-07T14:53:21;4.43;;;2.03;;
23302;SDS011;11820;48.738;9.092;2023-05-07T14:55:47;3.20;;;1.80;;
23302;SDS011;11820;48.738;9.092;2023-05-07T14:58:12;4.30;;;1.50;;
23302;SDS011;11820;48.738;9.092;2023-05-07T15:00:38;4.07;;;1.53;;